Das ist die Wetter- und Hausseite der Bittkau's aus Magdeburg Ottersleben


Hier werden aktuelle Daten aus der privaten Wetterstation und

andere lokale Wettervorhersagen bereitgestellt




Thunder radar more information blitzortung!


Rain radar more information rain snow radar



Es ist keine erhöhte Aufmerksamkeit aufgrund des Wetters notwendig.    Es gibt keine Warnungen.

METAR-Meldungen aus der Umgebung

   
EDDP - Leipzig
Aktualisierung: 22.09.2019 12:20
Klar  
Klar  
   Wind: Osten 11.1 km/h
Wind: Osten 11.1 km/h
Temperatur: 21°C
Taupunkt: 7°C
Luftfeuchte: 40%
Luftdruck: 1013 hPa
Sichtbarkeit: More than 10 km
Bewölkung: Klar
EDDP 221020Z 10006KT 060V150 CAVOK 21/07 Q1013 NOSIG
EDDC - Dresden
Aktualisierung: 22.09.2019 12:20
Klar  
Klar  
   Wind: SSO 20.4 km/h
Wind: SSO 20.4 km/h
Temperatur: 20°C
Taupunkt: 6°C
Luftfeuchte: 40%
Luftdruck: 1014 hPa
Sichtbarkeit: More than 10 km
Bewölkung: Klar
EDDC 221020Z 15011KT 120V180 CAVOK 20/06 Q1014 TEMPO 15015G25KT
EDDE - Erfurt
Aktualisierung: 22.09.2019 12:20
Klar  
Klar  
   Wind: NO 5.6 km/h
Wind: NO 5.6 km/h
Temperatur: 20°C
Taupunkt: 7°C
Luftfeuchte: 43%
Luftdruck: 1013 hPa
Sichtbarkeit: More than 10 km
Bewölkung: Klar
EDDE 221020Z 04003KT 320V120 CAVOK 20/07 Q1013 NOSIG
EDVE - Braunschweig
Aktualisierung: 22.09.2019 12:20
Klar  
Klar  
   Wind: Osten 16.7 km/h
Wind: Osten 16.7 km/h
Temperatur: 24°C
Taupunkt: 6°C
Luftfeuchte: 31%
Luftdruck: 1012 hPa
Sichtbarkeit: More than 10 km
Bewölkung: Klar
EDVE 221020Z 10009KT CAVOK 24/06 Q1012
EDDV - Hannover
Aktualisierung: 22.09.2019 12:20
Klar  
Klar  
   Wind: OSO 13 km/h
Wind: OSO 13 km/h
Temperatur: 22°C
Taupunkt: 8°C
Luftfeuchte: 41%
Luftdruck: 1012 hPa
Sichtbarkeit: More than 10 km
Bewölkung: Klar
EDDV 221020Z 11007KT 070V160 CAVOK 22/08 Q1012 NOSIG
EDDT - Berlin
Aktualisierung: 22.09.2019 12:20
Klar  
Klar  
   Wind: SSO 24.1 km/h
Wind: SSO 24.1 km/h
Temperatur: 22°C
Taupunkt: 7°C
Luftfeuchte: 38%
Luftdruck: 1014 hPa
Sichtbarkeit: More than 10 km
Bewölkung: Klar
EDDT 221020Z 15013KT 110V170 CAVOK 22/07 Q1014 NOSIG
EDDE - Schwerin
Aktualisierung: 22.09.2019 12:20
Klar  
Klar  
   Wind: NO 5.6 km/h
Wind: NO 5.6 km/h
Temperatur: 20°C
Taupunkt: 7°C
Luftfeuchte: 43%
Luftdruck: 1013 hPa
Sichtbarkeit: More than 10 km
Bewölkung: Klar
EDDE 221020Z 04003KT 320V120 CAVOK 20/07 Q1013 NOSIG
EDHI - Hamburg
Aktualisierung: 22.09.2019 12:20
Klar  
Klar  
   Wind: OSO 13 km/h
Wind: OSO 13 km/h
Temperatur: 20°C
Taupunkt: 9°C
Luftfeuchte: 49%
Luftdruck: 1012 hPa
Bewölkt: Klar
Sichtbarkeit: More than 10 km
Bewölkung: Klar
EDHI 221020Z AUTO 11007KT 060V150 9999 // NCD 20/09 Q1012
EDDK - Köln-Bonn
Aktualisierung: 22.09.2019 12:20
Klar  
Klar  
   Wind: SO 16.7 km/h
Wind: SO 16.7 km/h
Temperatur: 23°C
Taupunkt: 9°C
Luftfeuchte: 41%
Luftdruck: 1010 hPa
Sichtbarkeit: More than 10 km
Bewölkung: Klar
EDDK 221020Z 13009KT 080V160 CAVOK 23/09 Q1010 NOSIG
EDHL - Lübeck-Blankensee
Aktualisierung: 22.09.2019 12:20
Klar  
Klar  
   Wind: OSO 11.1 km/h
Wind: OSO 11.1 km/h
Temperatur: 20°C
Taupunkt: 10°C
Luftfeuchte: 53%
Luftdruck: 1013 hPa
Sichtbarkeit: More than 10 km
Bewölkung: Klar
EDHL 221020Z 12006KT 050V170 CAVOK 20/10 Q1013
  

Script entwickelt von  Saratoga-weather.org Angepasst für das Template von  Weerstation Leuven

Sie finden die Wetterinfo auch auf:

Wetternetzwerk Deutschland

European Weather Network

Weather Underground

Regionalwetter-SA

wetter.com

wxforum.de

Genutzte Hardware, Software und WEB Anbieter:

Wetterstation
Ventus W928-Ultimate

Wetterprogramm
Meteohub

WetterComputer
RaspberryPI

Anbieter
WEB Provider One.com

Ventus W928-Ultimate

Meteohub

RaspberryPI

WEB Provider One.com